Time;durP1;ratioP1;P1;durP2;ratioP2;P2;SDS_P1;SDS_P2;PMS_P1;PMS_P2;Temp;Humidity;BMP_temperature;BMP_pressure;BME280_temperature;BME280_humidity;BME280_pressure;Samples;Min_cycle;Max_cycle;Signal;HPM_P1;HPM_P2
2021/06/24 00:02:14;;;;;;;15.65;7.05;;;;;;;24.51;63.07;95283.28;5027225;28;20083;-76
2021/06/24 00:04:39;;;;;;;19.48;7.57;;;;;;;24.36;62.87;95269.25;5046759;28;20087;-77
2021/06/24 00:07:05;;;;;;;17.27;6.93;;;;;;;24.26;62.84;95254.44;5029356;28;20040;-77
2021/06/24 00:09:30;;;;;;;19.00;7.28;;;;;;;24.08;63.19;95238.72;5046555;28;20037;-77
2021/06/24 00:11:56;;;;;;;19.17;7.00;;;;;;;24.33;63.34;95283.94;5029175;28;20039;-77
2021/06/24 00:14:21;;;;;;;19.52;6.57;;;;;;;24.29;63.60;95280.72;5038554;28;20478;-77
2021/06/24 00:16:47;;;;;;;20.83;6.53;;;;;;;24.27;63.76;95288.66;5066725;28;20475;-76
2021/06/24 00:19:12;;;;;;;17.35;7.55;;;;;;;24.25;63.35;95291.16;5037220;28;20447;-76
2021/06/24 00:21:38;;;;;;;13.55;7.05;;;;;;;24.16;63.48;95277.84;5046265;28;20652;-77
2021/06/24 00:24:04;;;;;;;22.30;7.28;;;;;;;24.18;63.35;95291.72;5046439;28;20035;-77
2021/06/24 00:26:29;;;;;;;19.50;6.90;;;;;;;24.18;63.25;95286.25;5046668;28;20415;-77
2021/06/24 00:28:54;;;;;;;18.88;6.82;;;;;;;23.95;62.89;95263.13;5046786;28;20029;-77
2021/06/24 00:31:20;;;;;;;19.13;7.28;;;;;;;24.23;63.53;95307.31;5028684;28;20036;-77
2021/06/24 00:33:45;;;;;;;15.07;7.15;;;;;;;23.93;63.51;95264.84;5012105;28;20032;-77
2021/06/24 00:36:11;;;;;;;18.75;8.32;;;;;;;23.87;63.60;95266.91;5027744;28;20033;-77
2021/06/24 00:38:36;;;;;;;19.20;7.30;;;;;;;24.05;64.53;95310.69;5028630;28;20029;-77
2021/06/24 00:41:02;;;;;;;16.98;7.45;;;;;;;24.04;64.56;95301.00;5029168;28;20036;-77
2021/06/24 00:43:27;;;;;;;19.30;7.25;;;;;;;23.69;64.50;95250.41;5046609;28;20079;-78
2021/06/24 00:45:53;;;;;;;16.10;7.22;;;;;;;24.03;64.64;95307.69;5046975;28;20414;-77
2021/06/24 00:48:18;;;;;;;19.00;7.20;;;;;;;23.94;64.28;95299.81;5046786;28;20513;-77
2021/06/24 00:50:45;;;;;;;15.90;7.47;;;;;;;23.92;64.55;95313.22;5047227;28;20094;-77
2021/06/24 00:53:10;;;;;;;16.65;7.22;;;;;;;23.94;64.65;95305.28;5046189;28;20553;-77
2021/06/24 00:55:45;;;;;;;20.35;7.82;;;;;;;23.90;64.34;95310.28;5045442;28;20032;-77
2021/06/24 00:58:12;;;;;;;23.33;8.25;;;;;;;23.81;64.83;95300.91;5046500;28;20533;-77
2021/06/24 01:00:38;;;;;;;19.92;7.88;;;;;;;23.79;64.20;95297.94;5047725;28;20035;-77
2021/06/24 01:03:03;;;;;;;18.98;7.35;;;;;;;23.90;64.56;95318.47;5046069;28;20041;-76
2021/06/24 01:05:29;;;;;;;18.13;7.72;;;;;;;23.88;64.44;95318.22;5046595;28;20040;-77
2021/06/24 01:07:54;;;;;;;19.77;7.32;;;;;;;23.57;64.60;95276.97;5047019;28;20052;-77
2021/06/24 01:10:20;;;;;;;16.88;7.80;;;;;;;23.80;65.33;95304.91;5030268;28;20510;-77
2021/06/24 01:12:46;;;;;;;16.60;7.80;;;;;;;23.82;64.91;95318.75;5047561;28;20485;-76
2021/06/24 01:15:11;;;;;;;19.30;7.03;;;;;;;23.81;65.35;95322.72;5048127;28;20040;-77
2021/06/24 01:17:37;;;;;;;19.02;7.43;;;;;;;23.62;65.33;95295.28;5051847;28;20041;-76
2021/06/24 01:20:03;;;;;;;21.42;7.18;;;;;;;23.75;65.23;95313.81;5065710;28;20403;-77
2021/06/24 01:22:29;;;;;;;21.65;7.55;;;;;;;23.45;65.11;95275.56;5071739;28;20028;-77
2021/06/24 01:24:54;;;;;;;15.60;6.63;;;;;;;23.76;65.05;95318.03;5071594;28;20025;-77
2021/06/24 01:27:20;;;;;;;17.05;7.93;;;;;;;23.66;65.20;95295.03;5071531;28;20032;-77
2021/06/24 01:29:45;;;;;;;19.60;7.80;;;;;;;23.70;65.18;95311.88;5052543;28;20320;-77
2021/06/24 01:32:11;;;;;;;19.98;7.88;;;;;;;23.69;65.51;95319.31;5051327;28;20048;-77
2021/06/24 01:34:38;;;;;;;16.17;7.53;;;;;;;23.67;65.55;95321.06;5051488;28;20068;-76
2021/06/24 01:37:05;;;;;;;17.45;7.35;;;;;;;23.63;66.04;95315.84;5035203;28;20076;-76
2021/06/24 01:39:30;;;;;;;17.00;7.72;;;;;;;23.64;66.08;95316.63;5070417;28;20046;-77
2021/06/24 01:41:57;;;;;;;15.85;7.63;;;;;;;23.59;66.12;95322.81;5069334;28;20502;-77
2021/06/24 01:44:32;;;;;;;17.77;7.65;;;;;;;23.58;65.67;95326.78;5071513;28;20031;-77
2021/06/24 01:46:58;;;;;;;16.67;7.68;;;;;;;23.30;65.58;95277.09;5056748;28;20108;-77
2021/06/24 01:49:23;;;;;;;19.35;7.38;;;;;;;23.48;65.77;95317.41;5032314;28;20044;-77
2021/06/24 01:51:49;;;;;;;18.73;8.20;;;;;;;23.47;66.03;95311.22;5051428;28;20024;-76
2021/06/24 01:54:18;;;;;;;17.33;7.65;;;;;;;23.55;66.29;95316.88;5055301;28;20032;-76
2021/06/24 01:56:44;;;;;;;18.55;7.75;;;;;;;23.42;66.53;95308.50;5071686;28;20074;-76
2021/06/24 01:59:09;;;;;;;18.52;8.43;;;;;;;23.49;66.06;95313.44;5071234;28;20017;-76
2021/06/24 02:01:35;;;;;;;17.75;7.45;;;;;;;23.47;66.16;95315.94;5071219;28;20098;-76
2021/06/24 02:04:00;;;;;;;16.60;7.22;;;;;;;23.46;66.24;95303.53;5071214;28;20388;-76
2021/06/24 02:06:25;;;;;;;19.05;7.97;;;;;;;23.45;66.16;95307.50;5062213;28;20458;-76
2021/06/24 02:08:51;;;;;;;15.88;7.25;;;;;;;23.34;66.19;95296.66;5035842;28;20020;-76
2021/06/24 02:11:16;;;;;;;15.68;7.47;;;;;;;23.33;66.85;95292.44;5032604;28;20438;-76
2021/06/24 02:13:42;;;;;;;19.17;7.93;;;;;;;22.86;66.79;95224.03;5050879;28;20693;-76
2021/06/24 02:16:07;;;;;;;21.00;8.20;;;;;;;23.36;66.51;95294.16;5031966;28;20036;-76
2021/06/24 02:18:33;;;;;;;19.60;7.60;;;;;;;22.94;67.05;95247.53;5049131;28;20021;-75
2021/06/24 02:20:58;;;;;;;19.40;8.88;;;;;;;22.89;67.72;95257.16;5029344;28;20036;-76
2021/06/24 02:23:24;;;;;;;20.88;8.18;;;;;;;22.80;67.63;95250.53;5047411;28;20021;-76
2021/06/24 02:25:49;;;;;;;21.35;8.07;;;;;;;22.98;68.04;95289.59;5049032;28;20017;-76
2021/06/24 02:28:15;;;;;;;19.75;8.88;;;;;;;23.00;67.87;95283.66;5048796;28;20055;-76
2021/06/24 02:30:40;;;;;;;20.80;8.50;;;;;;;23.02;66.99;95287.38;5049127;28;20545;-75
2021/06/24 02:33:07;;;;;;;19.50;8.38;;;;;;;23.01;67.49;95285.88;5048960;28;20029;-76
2021/06/24 02:35:34;;;;;;;22.67;8.35;;;;;;;23.08;67.13;95288.09;5048752;28;20029;-75
2021/06/24 02:37:59;;;;;;;21.20;8.70;;;;;;;23.12;67.14;95296.75;5049015;28;20037;-76
2021/06/24 02:40:25;;;;;;;16.55;6.95;;;;;;;23.05;67.09;95264.56;5049065;28;20082;-76
2021/06/24 02:42:50;;;;;;;19.52;8.50;;;;;;;22.68;66.95;95219.13;5048791;28;20021;-76
2021/06/24 02:45:16;;;;;;;20.80;8.93;;;;;;;23.22;66.63;95278.88;5030717;28;20082;-76
2021/06/24 02:47:41;;;;;;;20.63;8.23;;;;;;;23.06;67.36;95271.50;5049016;28;20104;-75
2021/06/24 02:50:08;;;;;;;20.83;8.80;;;;;;;23.14;67.10;95288.81;5048776;28;20403;-75
2021/06/24 02:52:33;;;;;;;21.73;8.10;;;;;;;23.13;67.35;95286.59;5062862;28;20025;-76
2021/06/24 02:54:59;;;;;;;18.15;7.63;;;;;;;23.10;67.05;95287.59;5068526;28;20032;-75
2021/06/24 02:57:24;;;;;;;22.05;7.50;;;;;;;23.09;67.62;95291.53;5068799;28;21382;-75
2021/06/24 02:59:50;;;;;;;19.13;8.68;;;;;;;23.10;67.59;95291.03;5068608;28;20410;-76
2021/06/24 03:02:15;;;;;;;20.42;8.10;;;;;;;23.14;67.49;95293.53;5068946;28;20124;-76
2021/06/24 03:04:41;;;;;;;19.98;7.75;;;;;;;22.97;67.65;95274.50;5067089;28;20060;-75
2021/06/24 03:07:06;;;;;;;20.70;8.48;;;;;;;23.00;67.90;95300.75;5054593;28;20495;-75
2021/06/24 03:09:32;;;;;;;20.15;7.75;;;;;;;22.96;67.78;95294.81;5048403;28;20032;-76
2021/06/24 03:11:57;;;;;;;18.80;7.97;;;;;;;22.87;67.55;95285.38;5048108;28;20039;-76
2021/06/24 03:14:23;;;;;;;21.65;8.23;;;;;;;22.98;67.59;95297.75;5047245;28;20507;-76
2021/06/24 03:16:49;;;;;;;22.25;9.02;;;;;;;22.98;68.00;95308.66;5048096;28;20064;-77
2021/06/24 03:19:14;;;;;;;19.15;8.13;;;;;;;22.88;68.12;95280.19;5048560;28;20028;-76
2021/06/24 03:21:40;;;;;;;19.10;8.52;;;;;;;22.97;68.56;95301.00;5046929;28;20411;-76
2021/06/24 03:24:06;;;;;;;20.40;8.82;;;;;;;22.97;68.60;95296.31;5048068;28;20479;-76
2021/06/24 03:26:32;;;;;;;21.08;8.50;;;;;;;22.98;68.22;95308.66;5048505;28;20536;-76
2021/06/24 03:28:58;;;;;;;22.25;8.25;;;;;;;23.02;68.43;95298.25;5048039;28;20085;-76
2021/06/24 03:31:23;;;;;;;23.35;8.82;;;;;;;23.08;67.85;95300.97;5046828;28;20118;-76
2021/06/24 03:33:49;;;;;;;20.92;9.07;;;;;;;22.91;68.56;95287.38;5048113;28;20017;-76
2021/06/24 03:36:15;;;;;;;20.83;8.95;;;;;;;23.10;68.04;95304.66;5048278;28;20110;-76
2021/06/24 03:38:44;;;;;;;19.33;9.10;;;;;;;22.92;68.21;95272.50;5046804;28;20462;-76
2021/06/24 03:41:09;;;;;;;21.25;8.68;;;;;;;23.02;68.00;95290.09;5051702;28;20426;-76
2021/06/24 03:43:34;;;;;;;21.10;9.43;;;;;;;23.04;68.75;95290.31;5066753;28;20020;-76
2021/06/24 03:46:00;;;;;;;18.95;9.52;;;;;;;23.20;68.67;95316.03;5067513;28;20471;-76
2021/06/24 03:48:25;;;;;;;24.00;9.50;;;;;;;23.00;68.37;95289.84;5061239;28;20396;-76
2021/06/24 03:50:51;;;;;;;23.67;9.73;;;;;;;23.13;68.89;95298.22;5047987;28;20017;-76
2021/06/24 03:53:16;;;;;;;19.45;8.57;;;;;;;23.22;68.88;95322.47;5048477;28;20032;-76
2021/06/24 03:55:43;;;;;;;19.30;9.38;;;;;;;23.20;68.85;95314.06;5047588;28;20021;-75
2021/06/24 03:58:09;;;;;;;23.23;10.00;;;;;;;23.27;69.33;95321.69;5047745;28;20036;-76
2021/06/24 04:00:36;;;;;;;22.55;9.60;;;;;;;23.25;69.68;95329.63;5046296;28;20032;-76
2021/06/24 04:03:01;;;;;;;24.63;10.23;;;;;;;22.95;68.81;95276.97;5027813;28;20476;-78
2021/06/24 04:05:30;;;;;;;32.17;11.65;;;;;;;23.18;68.86;95311.06;5028848;28;20022;-75
2021/06/24 04:07:55;;;;;;;26.75;9.48;;;;;;;23.29;68.28;95311.06;5047091;28;20120;-76
2021/06/24 04:10:21;;;;;;;29.73;10.07;;;;;;;23.20;68.31;95297.72;5028488;28;20044;-76
2021/06/24 04:12:46;;;;;;;26.25;10.43;;;;;;;23.31;68.11;95314.00;5047440;28;20036;-77
2021/06/24 04:15:12;;;;;;;26.17;9.55;;;;;;;23.34;67.94;95310.28;5047331;28;20025;-76
2021/06/24 04:17:38;;;;;;;22.67;9.95;;;;;;;23.33;67.54;95311.50;5047585;28;20083;-76
2021/06/24 04:20:05;;;;;;;20.85;9.65;;;;;;;23.39;68.21;95314.97;5046738;28;21349;-77
2021/06/24 04:22:30;;;;;;;24.33;9.70;;;;;;;23.44;68.20;95311.50;5045040;28;20419;-77
2021/06/24 04:24:56;;;;;;;28.23;10.43;;;;;;;23.09;67.88;95254.16;5047443;28;20032;-78
2021/06/24 04:27:21;;;;;;;21.42;9.57;;;;;;;22.81;67.74;95222.78;5033176;28;20036;-84
2021/06/24 04:29:46;;;;;;;22.33;9.65;;;;;;;23.21;68.36;95282.81;5040681;28;20021;-80
2021/06/24 04:32:12;;;;;;;24.00;9.10;;;;;;;23.25;68.02;95283.31;5040206;28;20040;-80
2021/06/24 04:34:37;;;;;;;22.95;9.80;;;;;;;23.20;67.64;95270.47;5035752;28;20032;-75
2021/06/24 04:37:03;;;;;;;27.90;10.55;;;;;;;23.63;67.88;95313.13;5053090;28;20032;-74
2021/06/24 04:39:28;;;;;;;29.52;9.90;;;;;;;23.72;67.34;95306.66;5067862;28;20032;-75
2021/06/24 04:41:54;;;;;;;25.45;9.90;;;;;;;23.78;67.45;95308.13;5060208;28;20082;-74
2021/06/24 04:44:19;;;;;;;21.15;9.60;;;;;;;23.91;67.41;95305.53;5075432;28;20037;-78
2021/06/24 04:46:45;;;;;;;20.67;10.07;;;;;;;24.04;66.87;95314.63;5062677;28;20063;-76
2021/06/24 04:49:10;;;;;;;20.15;9.60;;;;;;;24.17;65.70;95301.16;5053027;28;20031;-77
2021/06/24 04:51:36;;;;;;;27.23;11.25;;;;;;;24.33;64.76;95313.97;5048470;28;20035;-76
2021/06/24 04:54:02;;;;;;;29.25;10.10;;;;;;;24.49;64.28;95296.72;5054843;28;20037;-77
2021/06/24 04:56:28;;;;;;;19.65;9.07;;;;;;;24.62;63.89;95302.28;5048296;28;20055;-77
2021/06/24 04:58:53;;;;;;;23.95;10.35;;;;;;;24.77;62.96;95305.38;5056055;28;20031;-76
2021/06/24 05:01:19;;;;;;;24.80;11.43;;;;;;;24.91;62.58;95305.72;5060667;28;20388;-76
2021/06/24 05:03:44;;;;;;;26.50;10.35;;;;;;;24.97;62.42;95290.03;5057847;28;20132;-77
2021/06/24 05:06:11;;;;;;;21.52;9.68;;;;;;;24.37;61.93;95183.41;5033099;28;20456;-77
2021/06/24 05:08:37;;;;;;;19.70;8.85;;;;;;;25.35;61.48;95310.75;5028248;28;20072;-77
2021/06/24 05:11:02;;;;;;;26.48;9.57;;;;;;;25.13;60.97;95259.06;5043256;28;20021;-79
2021/06/24 05:13:28;;;;;;;24.20;9.07;;;;;;;25.57;61.25;95307.75;5033086;28;20037;-78
2021/06/24 05:15:53;;;;;;;21.25;8.73;;;;;;;25.67;60.59;95306.16;5027369;28;20408;-76
2021/06/24 05:18:19;;;;;;;26.08;9.32;;;;;;;25.76;59.89;95303.78;5027056;28;20451;-75
2021/06/24 05:20:45;;;;;;;25.33;9.80;;;;;;;25.93;59.96;95313.25;5025825;28;20021;-75
2021/06/24 05:23:12;;;;;;;26.30;9.75;;;;;;;26.07;59.23;95317.53;5024353;28;20017;-74
2021/06/24 05:25:39;;;;;;;23.88;9.50;;;;;;;26.16;58.54;95325.38;5024893;28;20030;-76
2021/06/24 05:28:05;;;;;;;23.40;9.10;;;;;;;26.27;58.08;95324.47;5028145;28;20029;-75
2021/06/24 05:30:30;;;;;;;24.60;9.48;;;;;;;26.38;58.68;95325.06;5030769;28;20096;-76
2021/06/24 05:32:56;;;;;;;27.65;10.10;;;;;;;26.47;57.44;95327.41;5026388;28;20475;-74
2021/06/24 05:35:21;;;;;;;26.00;9.32;;;;;;;26.57;56.89;95309.31;5028888;28;20045;-76
2021/06/24 05:37:47;;;;;;;27.02;10.00;;;;;;;26.64;56.94;95308.72;4960517;28;20046;-75
2021/06/24 05:40:12;;;;;;;28.73;9.25;;;;;;;26.76;56.81;95310.00;5043298;28;20048;-76
2021/06/24 05:42:38;;;;;;;23.67;8.68;;;;;;;26.82;56.09;95312.09;5029099;28;20032;-75
2021/06/24 05:45:04;;;;;;;26.15;9.68;;;;;;;26.87;55.10;95300.28;5027421;28;20742;-75
2021/06/24 05:47:30;;;;;;;24.38;9.70;;;;;;;26.94;54.79;95304.47;5025871;28;20505;-76
2021/06/24 05:49:55;;;;;;;26.13;9.43;;;;;;;27.06;55.00;95301.00;5024633;28;20044;-74
2021/06/24 05:52:21;;;;;;;26.23;9.95;;;;;;;26.64;55.17;95226.53;5027749;28;20028;-76
2021/06/24 05:54:46;;;;;;;23.65;9.85;;;;;;;27.28;54.31;95311.56;5037908;28;20055;-76
2021/06/24 05:57:12;;;;;;;26.83;10.35;;;;;;;27.36;54.30;95317.88;5027287;28;20472;-76
2021/06/24 05:59:37;;;;;;;28.15;12.90;;;;;;;27.42;54.58;95310.28;5026332;28;20149;-74
2021/06/24 06:02:03;;;;;;;26.08;12.18;;;;;;;27.48;54.27;95308.16;5037231;28;20029;-74
2021/06/24 06:04:28;;;;;;;28.13;11.98;;;;;;;27.41;54.39;95297.81;5053976;28;20053;-73
2021/06/24 06:06:54;;;;;;;25.10;11.32;;;;;;;26.78;54.73;95221.22;5048005;28;20037;-74
2021/06/24 06:09:19;;;;;;;22.02;10.85;;;;;;;27.22;54.60;95307.41;5048266;28;20032;-73
2021/06/24 06:11:45;;;;;;;24.83;10.70;;;;;;;27.15;55.06;95297.81;5047438;28;20029;-74
2021/06/24 06:14:10;;;;;;;27.73;10.10;;;;;;;27.17;55.34;95300.78;5047760;28;20041;-73
2021/06/24 06:16:36;;;;;;;24.63;10.60;;;;;;;27.13;55.28;95310.56;5049538;28;20081;-73
2021/06/24 06:19:02;;;;;;;23.30;10.48;;;;;;;27.09;55.36;95310.91;5048202;28;20037;-73
2021/06/24 06:21:29;;;;;;;23.38;9.88;;;;;;;27.06;55.36;95311.94;5045399;28;20072;-72
2021/06/24 06:23:56;;;;;;;19.75;8.80;;;;;;;27.04;55.69;95303.53;5046483;28;20021;-73
2021/06/24 06:26:21;;;;;;;16.98;9.00;;;;;;;26.98;55.52;95305.63;5038195;28;20060;-73
2021/06/24 06:28:47;;;;;;;23.23;9.63;;;;;;;26.95;55.44;95295.72;5030552;28;20025;-73
2021/06/24 06:31:12;;;;;;;16.75;7.88;;;;;;;26.93;54.29;95303.72;5052577;28;20082;-73
2021/06/24 06:33:37;;;;;;;19.27;8.05;;;;;;;26.89;53.84;95308.78;5032291;28;20398;-73
2021/06/24 06:36:04;;;;;;;19.30;7.72;;;;;;;26.84;53.45;95306.81;5049139;28;20419;-73
2021/06/24 06:38:29;;;;;;;17.63;8.07;;;;;;;26.78;53.02;95292.47;5049700;28;20026;-73
2021/06/24 06:40:54;;;;;;;17.65;8.55;;;;;;;26.78;53.06;95297.97;5046854;28;20021;-73
2021/06/24 06:43:20;;;;;;;17.10;7.60;;;;;;;26.69;52.47;95291.44;5052125;28;20473;-73
2021/06/24 06:45:47;;;;;;;13.75;7.43;;;;;;;26.72;52.24;95302.06;5049074;28;20454;-73
2021/06/24 06:48:12;;;;;;;16.00;7.20;;;;;;;26.39;52.57;95238.91;5048156;28;20024;-73
2021/06/24 06:50:38;;;;;;;18.10;7.60;;;;;;;26.69;52.44;95299.66;5049725;28;20094;-73
2021/06/24 06:53:05;;;;;;;18.10;7.20;;;;;;;26.66;52.58;95300.69;5048865;28;20041;-73
2021/06/24 06:55:31;;;;;;;16.08;7.28;;;;;;;26.64;52.71;95305.97;5052907;28;20081;-74
2021/06/24 06:57:57;;;;;;;14.98;7.25;;;;;;;26.36;52.31;95250.91;5058446;28;20033;-74
2021/06/24 07:00:24;;;;;;;12.00;6.53;;;;;;;26.51;52.52;95284.00;5050146;28;20032;-74
2021/06/24 07:02:49;;;;;;;14.57;7.07;;;;;;;26.31;51.75;95254.47;5032477;28;20048;-74
2021/06/24 07:05:15;;;;;;;13.13;6.55;;;;;;;26.54;51.97;95296.66;5048376;28;20043;-74
2021/06/24 07:07:40;;;;;;;14.25;6.50;;;;;;;26.52;51.96;95296.47;5047689;28;20025;-74
2021/06/24 07:10:06;;;;;;;11.82;6.53;;;;;;;26.50;51.79;95298.97;5049650;28;20031;-74
2021/06/24 07:12:32;;;;;;;13.65;6.78;;;;;;;26.50;51.96;95309.91;5047483;28;20579;-74
2021/06/24 07:14:57;;;;;;;17.50;6.65;;;;;;;26.32;51.69;95288.78;5048050;28;20025;-74
2021/06/24 07:17:23;;;;;;;13.90;6.22;;;;;;;26.47;51.58;95306.25;5029652;28;20025;-73
2021/06/24 07:19:48;;;;;;;12.55;6.90;;;;;;;26.45;51.75;95299.78;5046998;28;20040;-73
2021/06/24 07:22:13;;;;;;;14.10;6.28;;;;;;;26.17;51.60;95261.13;5047252;28;20123;-74
2021/06/24 07:24:39;;;;;;;12.55;6.60;;;;;;;26.41;51.79;95302.09;5026429;28;20025;-74
2021/06/24 07:27:05;;;;;;;11.85;6.05;;;;;;;26.40;52.04;95289.69;5040869;28;20029;-73
2021/06/24 07:29:30;;;;;;;12.25;5.90;;;;;;;26.39;51.69;95293.66;5048097;28;20476;-73
2021/06/24 07:31:56;;;;;;;12.80;6.25;;;;;;;26.39;51.54;95304.63;5046991;28;20025;-73
2021/06/24 07:34:21;;;;;;;11.52;6.30;;;;;;;26.37;51.62;95296.19;5047547;28;20033;-74
2021/06/24 07:36:48;;;;;;;11.18;5.95;;;;;;;26.39;52.23;95302.63;5047524;28;20013;-74
2021/06/24 07:39:13;;;;;;;16.02;6.55;;;;;;;26.37;51.62;95296.94;5047832;28;20032;-73
2021/06/24 07:41:39;;;;;;;13.98;6.53;;;;;;;26.38;51.99;95292.19;5048084;28;20028;-74
2021/06/24 07:44:04;;;;;;;16.33;6.40;;;;;;;26.38;51.49;95297.66;5047870;28;20024;-74
2021/06/24 07:46:30;;;;;;;11.30;6.40;;;;;;;26.33;51.94;95295.75;5047664;28;20025;-74
2021/06/24 07:48:55;;;;;;;14.40;6.22;;;;;;;26.37;51.63;95309.91;5047044;28;20028;-74
2021/06/24 07:51:21;;;;;;;13.60;5.93;;;;;;;26.36;51.48;95305.66;5046112;28;20039;-73
2021/06/24 07:53:47;;;;;;;14.70;6.88;;;;;;;26.37;50.01;95307.16;5047646;28;20492;-74
2021/06/24 07:56:13;;;;;;;12.38;5.75;;;;;;;26.25;48.62;95305.81;5047351;28;20025;-73
2021/06/24 07:58:38;;;;;;;11.13;6.53;;;;;;;26.16;47.85;95303.47;5047460;28;20209;-74
2021/06/24 08:01:04;;;;;;;11.27;6.20;;;;;;;26.04;46.67;95302.16;5029882;28;20036;-74
2021/06/24 08:03:30;;;;;;;10.95;5.97;;;;;;;25.85;46.84;95285.00;5056815;28;20132;-73
2021/06/24 08:05:55;;;;;;;10.75;6.03;;;;;;;25.87;47.37;95304.38;5046107;28;20112;-73
2021/06/24 08:08:21;;;;;;;11.32;6.05;;;;;;;25.84;48.14;95299.97;5045158;28;20102;-73
2021/06/24 08:10:47;;;;;;;10.75;5.95;;;;;;;25.82;48.84;95296.25;5044705;28;20042;-75
2021/06/24 08:13:12;;;;;;;12.05;5.97;;;;;;;25.67;49.62;95273.34;5044657;28;20033;-74
2021/06/24 08:15:37;;;;;;;11.90;6.38;;;;;;;25.78;51.53;95286.84;5027076;28;20086;-74
2021/06/24 08:18:03;;;;;;;9.50;5.90;;;;;;;25.79;52.64;95292.53;5045585;28;20044;-73
2021/06/24 08:20:29;;;;;;;11.90;6.03;;;;;;;25.83;53.69;95297.75;5066583;28;20032;-73
2021/06/24 08:22:55;;;;;;;12.15;6.47;;;;;;;25.78;54.42;95300.53;5066325;28;20569;-72
2021/06/24 08:25:21;;;;;;;11.52;6.63;;;;;;;25.72;54.52;95302.59;5065643;28;20042;-73
2021/06/24 08:27:49;;;;;;;13.85;6.13;;;;;;;25.25;54.89;95249.50;5065925;28;20032;-72
2021/06/24 08:30:15;;;;;;;11.50;5.70;;;;;;;25.58;55.30;95301.03;5066883;28;20071;-72
2021/06/24 08:32:40;;;;;;;11.15;6.15;;;;;;;25.45;55.52;95311.88;5049258;28;20024;-72
2021/06/24 08:35:08;;;;;;;9.88;6.13;;;;;;;25.43;55.90;95308.91;5057190;28;20800;-72
2021/06/24 08:37:34;;;;;;;10.65;6.00;;;;;;;25.06;56.00;95265.09;5046256;28;20037;-73
2021/06/24 08:39:59;;;;;;;10.52;6.10;;;;;;;25.28;56.18;95292.19;5027388;28;20033;-72
2021/06/24 08:42:25;;;;;;;12.23;6.38;;;;;;;25.26;55.97;95297.44;5027773;28;20397;-75
2021/06/24 08:44:50;;;;;;;11.05;5.53;;;;;;;25.34;56.10;95306.53;5028613;28;20055;-73
2021/06/24 08:47:16;;;;;;;12.75;5.97;;;;;;;24.94;56.04;95252.06;5046629;28;20415;-74
2021/06/24 08:49:41;;;;;;;13.02;5.93;;;;;;;25.31;56.24;95302.09;5028946;28;20044;-74
2021/06/24 08:52:08;;;;;;;10.27;5.45;;;;;;;25.36;56.67;95293.09;5046842;28;20055;-72
2021/06/24 08:54:33;;;;;;;12.27;6.55;;;;;;;25.32;56.66;95259.84;5046801;28;20200;-74
2021/06/24 08:56:59;;;;;;;10.48;6.50;;;;;;;25.06;56.74;95215.19;5046383;28;20487;-73
2021/06/24 08:59:24;;;;;;;11.15;5.95;;;;;;;25.61;56.85;95280.84;5051083;28;20412;-73
2021/06/24 09:01:50;;;;;;;13.23;5.30;;;;;;;25.69;56.77;95298.16;5045626;28;20088;-73
2021/06/24 09:04:16;;;;;;;10.43;5.80;;;;;;;25.30;57.29;95235.00;5047141;28;20076;-73
2021/06/24 09:06:42;;;;;;;11.07;4.85;;;;;;;25.75;57.28;95296.09;5046747;28;20033;-71
2021/06/24 09:09:07;;;;;;;7.60;4.68;;;;;;;25.78;57.01;95295.06;5044558;28;20037;-73
2021/06/24 09:11:32;;;;;;;7.88;4.40;;;;;;;25.79;57.28;95299.28;5028142;28;20033;-78
2021/06/24 09:14:01;;;;;;;8.00;4.80;;;;;;;25.84;57.15;95297.22;5027037;28;20037;-73
2021/06/24 09:16:34;;;;;;;7.93;4.38;;;;;;;25.88;57.43;95292.16;5046278;28;20036;-75
2021/06/24 09:19:29;;;;;;;9.50;4.25;;;;;;;25.99;58.15;95294.78;5026257;28;20035;-73
2021/06/24 09:22:07;;;;;;;11.50;5.63;;;;;;;26.07;58.99;95301.13;5015449;28;20511;-74
2021/06/24 09:24:37;;;;;;;10.55;5.90;;;;;;;26.18;59.08;95284.50;5046408;28;20844;-73
2021/06/24 09:27:05;;;;;;;17.90;8.52;;;;;;;26.26;58.87;95268.94;5044502;28;20041;-73
2021/06/24 09:29:30;;;;;;;14.07;8.23;;;;;;;26.35;58.41;95293.97;5046217;28;20025;-74
2021/06/24 09:31:57;;;;;;;12.10;7.80;;;;;;;26.38;57.29;95282.00;5048422;28;20772;-73
2021/06/24 09:34:23;;;;;;;12.02;7.72;;;;;;;26.51;57.12;95275.78;5048983;28;20033;-73
2021/06/24 09:36:51;;;;;;;14.43;7.57;;;;;;;26.59;56.74;95276.66;5048667;28;20025;-74
2021/06/24 09:39:44;;;;;;;12.30;6.85;;;;;;;26.66;56.56;95278.78;5050730;28;20833;-74
2021/06/24 09:42:11;;;;;;;12.88;6.85;;;;;;;26.65;55.86;95269.06;5050423;28;20474;-74
2021/06/24 09:44:38;;;;;;;13.40;6.97;;;;;;;26.75;55.43;95275.63;5059861;28;20033;-74
2021/06/24 09:47:29;;;;;;;10.50;6.35;;;;;;;26.82;55.74;95278.50;5060381;28;20096;-73
2021/06/24 09:50:02;;;;;;;13.18;6.30;;;;;;;26.80;55.52;95273.53;5049318;28;20040;-75
2021/06/24 09:52:28;;;;;;;11.10;6.53;;;;;;;26.91;55.37;95273.34;5017249;28;20028;-74
2021/06/24 09:55:16;;;;;;;11.57;6.65;;;;;;;26.98;55.45;95283.69;5049535;28;20029;-75
2021/06/24 09:57:41;;;;;;;11.35;6.20;;;;;;;27.02;55.12;95277.88;5056093;28;20427;-76
2021/06/24 10:00:20;;;;;;;11.30;5.95;;;;;;;27.06;55.43;95272.84;5049321;28;20032;-77
2021/06/24 10:03:08;;;;;;;8.30;5.50;;;;;;;27.07;54.99;95275.06;5047079;28;20562;-76
2021/06/24 10:05:34;;;;;;;9.63;5.35;;;;;;;27.09;55.38;95267.03;5047699;28;20127;-74
2021/06/24 10:07:59;;;;;;;10.05;6.15;;;;;;;27.11;54.79;95261.75;5045346;28;20053;-77
2021/06/24 10:10:25;;;;;;;10.65;5.72;;;;;;;27.12;54.89;95252.28;5050086;28;20032;-76
2021/06/24 10:12:51;;;;;;;8.68;5.35;;;;;;;27.11;54.64;95248.03;5050383;28;20032;-76
2021/06/24 10:15:17;;;;;;;10.73;5.50;;;;;;;27.19;54.68;95254.38;5051260;28;20033;-76
2021/06/24 10:17:43;;;;;;;10.45;5.85;;;;;;;27.14;54.62;95257.94;5052256;28;20033;-78
2021/06/24 10:20:10;;;;;;;8.50;5.63;;;;;;;27.19;54.88;95254.38;5051027;28;20047;-77
2021/06/24 10:22:35;;;;;;;9.35;5.53;;;;;;;26.95;54.20;95213.47;5031289;28;20526;-76
2021/06/24 10:25:03;;;;;;;8.63;5.40;;;;;;;27.19;54.79;95246.16;5060669;28;20024;-76
2021/06/24 10:27:34;;;;;;;8.88;5.25;;;;;;;27.20;54.71;95244.88;5049213;28;20025;-76
2021/06/24 10:30:10;;;;;;;8.70;5.82;;;;;;;27.21;54.68;95240.16;5030755;28;20412;-77
2021/06/24 10:32:36;;;;;;;8.02;4.75;;;;;;;27.25;53.99;95241.31;5049511;28;20043;-77
2021/06/24 10:35:22;;;;;;;7.85;5.10;;;;;;;27.24;54.05;95251.50;5048233;28;20483;-75
2021/06/24 10:37:48;;;;;;;9.38;5.32;;;;;;;27.31;53.64;95239.19;5048357;28;20028;-77
2021/06/24 10:40:33;;;;;;;8.07;5.22;;;;;;;27.32;53.76;95235.91;5031420;28;20419;-75
2021/06/24 10:43:03;;;;;;;8.73;4.70;;;;;;;27.25;53.38;95230.34;5051096;28;20419;-75
2021/06/24 10:45:29;;;;;;;7.07;4.85;;;;;;;27.30;53.67;95232.22;5034080;28;20021;-74
2021/06/24 10:47:56;;;;;;;8.85;4.95;;;;;;;27.36;53.26;95222.59;5048865;28;20036;-73
2021/06/24 10:50:27;;;;;;;8.02;5.00;;;;;;;27.39;52.73;95223.53;5030408;28;20056;-75
2021/06/24 10:52:53;;;;;;;7.80;4.78;;;;;;;27.36;52.76;95235.56;5049383;28;20036;-72
2021/06/24 10:55:34;;;;;;;6.95;4.65;;;;;;;27.20;52.88;95233.91;5047695;28;20117;-75
2021/06/24 10:58:00;;;;;;;8.43;5.00;;;;;;;27.04;53.55;95232.25;5045876;28;20738;-74
2021/06/24 11:00:38;;;;;;;6.13;4.38;;;;;;;26.97;53.71;95221.91;5047780;28;20090;-75
2021/06/24 11:03:07;;;;;;;6.55;4.40;;;;;;;26.96;53.59;95231.38;5045566;28;20128;-75
2021/06/24 11:05:40;;;;;;;5.57;4.25;;;;;;;26.70;53.21;95191.53;5050213;28;20036;-75
2021/06/24 11:08:18;;;;;;;5.57;4.15;;;;;;;26.91;53.17;95226.03;5036318;28;20043;-75
2021/06/24 11:10:51;;;;;;;5.90;4.15;;;;;;;26.89;52.97;95221.06;5048907;28;20112;-75
2021/06/24 11:16:22;;;;;;;6.80;4.10;;;;;;;26.81;53.05;95236.63;5031151;28;20029;-74
2021/06/24 11:18:48;;;;;;;7.28;3.95;;;;;;;26.80;52.97;95223.44;5033960;28;20133;-75
2021/06/24 11:21:24;;;;;;;5.72;4.10;;;;;;;26.76;52.83;95212.81;5048331;28;20036;-74
2021/06/24 11:23:52;;;;;;;6.57;4.28;;;;;;;26.74;52.80;95213.88;5045133;28;20043;-73
2021/06/24 11:26:21;;;;;;;5.53;4.10;;;;;;;26.72;52.68;95232.84;5031864;28;20037;-74
2021/06/24 11:28:49;;;;;;;5.50;3.72;;;;;;;26.37;52.90;95175.72;5025992;28;20043;-73